Terminal Aerodrome Forecast
Issued by NWS

Home | Current Version | Previous Version | Text Only | Print | Product List | Glossary Off
Versions: 1 2 3 4 5 6 7 8 9 10 11 12 13 14 15 16 17 18

000
FTUS43 KICT 250520
TAFRSL
TAF
KRSL 250520Z 2506/2606 03004KT P6SM VCSH BKN100
     FM251300 03006KT P6SM BKN120
     FM251500 02004KT P6SM BKN100
     FM251700 06005KT P6SM VCSH BKN080
     FM252100 08005KT P6SM BKN100=

USA.gov is the U.S. government's official web portal to all federal, state and local government web resources and services.